Time;durP1;ratioP1;P1;durP2;ratioP2;P2;SDS_P1;SDS_P2;PMS_P1;PMS_P2;Temp;Humidity;BMP_temperature;BMP_pressure;BME280_temperature;BME280_humidity;BME280_pressure;Samples;Min_cycle;Max_cycle;Signal;HPM_P1;HPM_P2
2022/06/08 00:02:20;;;;;;;;;;;18.40;99.90;;;15.46;100.00;100049.81;4984614;28;19988;-82
2022/06/08 00:04:47;;;;;;;;;;;18.40;99.90;;;15.46;100.00;100058.06;5018028;28;20023;-82
2022/06/08 00:07:14;;;;;;;;;;;18.40;99.90;;;15.49;100.00;100051.25;4982069;28;20466;-82
2022/06/08 00:09:41;;;;;;;;;;;18.40;99.90;;;15.55;100.00;100047.59;4984352;28;19928;-82
2022/06/08 00:12:10;;;;;;;;;;;18.30;99.90;;;15.50;100.00;100048.28;5006111;28;20003;-82
2022/06/08 00:14:38;;;;;;;;;;;18.30;99.90;;;15.47;100.00;100048.75;5006084;28;20013;-82
2022/06/08 00:17:07;;;;;;;;;;;18.30;99.90;;;15.45;100.00;100042.66;5025312;28;19929;-82
2022/06/08 00:19:34;;;;;;;;;;;18.30;99.90;;;15.42;100.00;100034.88;5058481;28;19939;-82
2022/06/08 00:22:02;;;;;;;;;;;18.30;99.90;;;15.37;100.00;100037.47;5012271;28;19937;-82
2022/06/08 00:24:29;;;;;;;;;;;18.30;99.90;;;15.37;100.00;100041.03;4963777;28;19938;-82
2022/06/08 00:26:56;;;;;;;;;;;18.30;99.90;;;15.35;100.00;100032.22;4975809;28;19933;-83
2022/06/08 00:29:23;;;;;;;;;;;18.30;99.90;;;15.35;100.00;100023.16;5043186;28;19930;-82
2022/06/08 00:31:53;;;;;;;;;;;18.30;99.90;;;15.37;100.00;100030.06;5039159;28;20234;-82
2022/06/08 00:34:21;;;;;;;;;;;18.20;99.90;;;15.42;100.00;100029.38;5015209;28;20416;-82
2022/06/08 00:36:49;;;;;;;;;;;18.20;99.90;;;15.44;100.00;100022.63;5037321;28;19957;-82
2022/06/08 00:39:16;;;;;;;;;;;18.20;99.90;;;15.40;100.00;100023.28;5037985;28;19941;-82
2022/06/08 00:41:45;;;;;;;;;;;18.30;99.90;;;15.44;100.00;100021.78;5022446;28;19946;-83
2022/06/08 00:44:17;;;;;;;;;;;18.20;99.90;;;15.45;100.00;100015.22;4966636;28;20341;-83
2022/06/08 00:46:45;;;;;;;;;;;18.20;99.90;;;15.43;100.00;100020.94;5002295;28;19931;-83
2022/06/08 00:49:17;;;;;;;;;;;18.20;99.90;;;15.41;100.00;100012.09;5012229;28;19938;-83
2022/06/08 00:51:46;;;;;;;;;;;18.30;99.90;;;15.36;100.00;100019.34;5036152;28;19961;-83
2022/06/08 00:54:18;;;;;;;;;;;18.20;99.90;;;15.38;100.00;100006.22;5043360;28;19931;-83
2022/06/08 00:56:51;;;;;;;;;;;18.20;99.90;;;15.38;100.00;100011.72;5053215;28;19935;-83
2022/06/08 00:59:18;;;;;;;;;;;18.20;99.90;;;15.29;100.00;100013.09;5041087;28;20306;-83
2022/06/08 01:01:45;;;;;;;;;;;18.20;99.90;;;15.22;100.00;100007.69;4986817;28;19928;-83
2022/06/08 01:04:15;;;;;;;;;;;18.20;99.90;;;15.22;100.00;100005.78;5039238;28;19978;-83
2022/06/08 01:06:52;;;;;;;;;;;18.20;99.90;;;15.17;100.00;100002.91;5045908;28;19958;-83
2022/06/08 01:09:27;;;;;;;;;;;18.10;99.90;;;15.14;100.00;100006.09;5038707;28;19934;-83
2022/06/08 01:11:56;;;;;;;;;;;18.10;99.90;;;15.10;100.00;99999.38;5044742;28;19930;-83
2022/06/08 01:14:23;;;;;;;;;;;18.10;99.90;;;15.10;100.00;99999.38;5018936;28;19937;-83
2022/06/08 01:16:54;;;;;;;;;;;18.10;99.90;;;15.08;100.00;100001.53;5065346;28;20281;-83
2022/06/08 01:19:23;;;;;;;;;;;18.10;99.90;;;15.09;100.00;99994.13;5048622;28;20508;-83
2022/06/08 01:21:57;;;;;;;;;;;18.00;99.90;;;15.05;100.00;99985.53;5031339;28;20963;-83
2022/06/08 01:24:37;;;;;;;;;;;18.00;99.90;;;15.06;100.00;99981.72;5036424;28;21451;-83
2022/06/08 01:27:13;;;;;;;;;;;18.00;99.90;;;15.05;100.00;99977.28;5024807;28;19935;-83
2022/06/08 01:29:44;;;;;;;;;;;18.00;99.90;;;15.01;100.00;99978.81;5050459;28;20466;-83
2022/06/08 01:32:19;;;;;;;;;;;18.00;99.90;;;14.97;100.00;99977.59;5035345;28;19937;-83
2022/06/08 01:34:59;;;;;;;;;;;18.00;99.90;;;14.94;100.00;99978.03;5044973;28;20343;-83
2022/06/08 01:37:35;;;;;;;;;;;17.90;99.90;;;14.93;100.00;99970.91;5033294;28;19930;-83
2022/06/08 01:40:28;;;;;;;;;;;17.90;99.90;;;14.90;100.00;99963.97;4999554;28;19930;-83
2022/06/08 01:43:04;;;;;;;;;;;17.90;99.90;;;14.95;100.00;99957.81;5010877;28;19930;-82
2022/06/08 01:45:43;;;;;;;;;;;17.90;99.90;;;14.90;100.00;99958.47;4994336;28;20028;-83
2022/06/08 01:48:43;;;;;;;;;;;17.90;99.90;;;14.93;100.00;99954.47;5051567;28;20319;-82
2022/06/08 01:51:19;;;;;;;;;;;17.90;99.90;;;14.92;100.00;99950.03;5010251;28;20385;-83
2022/06/08 01:53:52;;;;;;;;;;;17.90;99.90;;;14.90;100.00;99949.44;4963107;28;20406;-82
2022/06/08 01:56:25;;;;;;;;;;;17.90;99.90;;;14.89;100.00;99947.75;5039662;28;19930;-83
2022/06/08 01:58:59;;;;;;;;;;;17.90;99.90;;;14.90;100.00;99941.22;5033756;28;19972;-83
2022/06/08 02:01:29;;;;;;;;;;;17.90;99.90;;;14.97;100.00;99941.97;5043208;28;20382;-83
2022/06/08 02:04:05;;;;;;;;;;;17.80;99.90;;;14.98;100.00;99930.78;5045963;28;20566;-83
2022/06/08 02:06:40;;;;;;;;;;;17.80;99.90;;;15.00;100.00;99941.50;5038605;28;19930;-83
2022/06/08 02:09:16;;;;;;;;;;;17.90;99.90;;;14.98;100.00;99935.41;5048367;28;20317;-82
2022/06/08 02:11:48;;;;;;;;;;;17.90;99.90;;;15.03;100.00;99930.94;5029716;28;19930;-82
2022/06/08 02:14:21;;;;;;;;;;;17.80;99.90;;;15.10;100.00;99935.50;5037183;28;20019;-82
2022/06/08 02:16:52;;;;;;;;;;;17.80;99.90;;;15.09;100.00;99936.56;5046693;28;19932;-83
2022/06/08 02:19:22;;;;;;;;;;;17.90;99.90;;;15.07;100.00;99934.06;5038513;28;19969;-83
2022/06/08 02:21:52;;;;;;;;;;;17.90;99.90;;;15.03;100.00;99927.34;5051850;28;20704;-83
2022/06/08 02:24:26;;;;;;;;;;;17.90;99.90;;;14.97;100.00;99934.59;5039623;28;19931;-83
2022/06/08 02:26:57;;;;;;;;;;;17.90;99.90;;;14.95;100.00;99924.94;5031329;28;19969;-83
2022/06/08 02:29:28;;;;;;;;;;;17.80;99.90;;;14.89;100.00;99925.81;5041449;28;19926;-83
2022/06/08 02:31:58;;;;;;;;;;;17.80;99.90;;;14.83;100.00;99917.47;5051846;28;19928;-83
2022/06/08 02:34:29;;;;;;;;;;;17.80;99.90;;;14.79;100.00;99931.81;5006297;28;19930;-83
2022/06/08 02:37:01;;;;;;;;;;;17.80;99.90;;;14.73;100.00;99916.31;5034232;28;19930;-83
2022/06/08 02:39:33;;;;;;;;;;;17.80;99.90;;;14.73;100.00;99922.63;5032282;28;19930;-83
2022/06/08 02:42:05;;;;;;;;;;;17.70;99.90;;;14.74;100.00;99909.78;5010754;28;20141;-83
2022/06/08 02:44:33;;;;;;;;;;;17.70;99.90;;;14.71;100.00;99915.69;5032989;28;20329;-83
2022/06/08 02:47:05;;;;;;;;;;;17.70;99.90;;;14.67;100.00;99912.56;5044059;28;19972;-82
2022/06/08 02:49:36;;;;;;;;;;;17.70;99.90;;;14.62;100.00;99907.78;5049186;28;19930;-83
2022/06/08 02:52:17;;;;;;;;;;;17.70;99.90;;;14.60;100.00;99911.78;5034911;28;19938;-82
2022/06/08 02:54:46;;;;;;;;;;;17.60;99.90;;;14.57;100.00;99906.78;5061624;28;19936;-83
2022/06/08 02:57:21;;;;;;;;;;;17.60;99.90;;;14.57;100.00;99906.78;5015199;28;19935;-82
2022/06/08 02:59:52;;;;;;;;;;;17.60;99.90;;;14.55;100.00;99906.16;5032183;28;19937;-83
2022/06/08 03:02:28;;;;;;;;;;;17.60;99.90;;;14.54;100.00;99896.25;5031459;28;20306;-82
2022/06/08 03:04:59;;;;;;;;;;;17.60;99.90;;;14.52;100.00;99898.38;5038825;28;19937;-83
2022/06/08 03:07:31;;;;;;;;;;;17.60;99.90;;;14.52;100.00;99895.63;5034923;28;20311;-82
2022/06/08 03:10:03;;;;;;;;;;;17.60;99.90;;;14.50;100.00;99895.84;4975542;28;19934;-82
2022/06/08 03:12:34;;;;;;;;;;;17.50;99.90;;;14.47;100.00;99891.69;5010372;28;20305;-83
2022/06/08 03:15:02;;;;;;;;;;;17.60;99.90;;;14.48;100.00;99889.78;5040970;28;19980;-82
2022/06/08 03:17:34;;;;;;;;;;;17.50;99.90;;;14.48;100.00;99885.13;5019288;28;19938;-83
2022/06/08 03:20:02;;;;;;;;;;;17.50;99.90;;;14.50;100.00;99878.59;5045138;28;20473;-83
2022/06/08 03:22:29;;;;;;;;;;;17.50;99.90;;;14.49;100.00;99883.25;5051917;28;19928;-83
2022/06/08 03:24:56;;;;;;;;;;;17.50;99.90;;;14.50;100.00;99879.41;5051774;28;20305;-82
2022/06/08 03:27:25;;;;;;;;;;;17.50;99.90;;;14.52;100.00;99881.94;5043336;28;19924;-82
2022/06/08 03:29:55;;;;;;;;;;;17.50;99.90;;;14.53;100.00;99880.91;5036702;28;19930;-83
2022/06/08 03:32:23;;;;;;;;;;;17.50;99.90;;;14.60;100.00;99873.44;5046816;28;20013;-82
2022/06/08 03:34:50;;;;;;;;;;;17.50;99.90;;;14.60;100.00;99878.94;5038183;28;19930;-82
2022/06/08 03:37:18;;;;;;;;;;;17.50;99.90;;;14.62;100.00;99876.81;5054954;28;19928;-82
2022/06/08 03:39:51;;;;;;;;;;;17.50;99.90;;;14.62;100.00;99879.53;5061497;28;19935;-82
2022/06/08 03:42:18;;;;;;;;;;;17.50;99.90;;;14.66;100.00;99878.88;5028737;28;20011;-82
2022/06/08 03:44:46;;;;;;;;;;;17.50;99.90;;;14.73;100.00;99867.84;5038420;28;20008;-83
2022/06/08 03:47:17;;;;;;;;;;;17.50;99.90;;;14.85;100.00;99887.94;5035924;28;20025;-82
2022/06/08 03:49:44;;;;;;;;;;;17.50;99.90;;;14.93;100.00;99875.84;5054578;28;20316;-83
2022/06/08 03:52:14;;;;;;;;;;;17.50;99.90;;;15.02;100.00;99873.59;4970838;28;19970;-82
2022/06/08 03:54:46;;;;;;;;;;;17.60;99.90;;;15.16;100.00;99872.38;4995342;28;20002;-82
2022/06/08 03:57:14;;;;;;;;;;;17.60;99.90;;;15.20;100.00;99868.09;5054946;28;19930;-82
2022/06/08 03:59:43;;;;;;;;;;;17.60;99.90;;;15.27;100.00;99868.03;5044774;28;19935;-83
2022/06/08 04:02:13;;;;;;;;;;;17.60;99.90;;;15.39;100.00;99870.81;5045009;28;20067;-82
2022/06/08 04:04:43;;;;;;;;;;;17.70;99.90;;;15.48;100.00;99880.41;5046698;28;19928;-87
2022/06/08 04:07:11;;;;;;;;;;;17.70;99.90;;;15.51;100.00;99879.91;5036744;28;20340;-82
2022/06/08 04:09:42;;;;;;;;;;;17.70;99.90;;;15.62;100.00;99876.38;5033367;28;19938;-83
2022/06/08 04:12:11;;;;;;;;;;;17.80;99.90;;;15.73;100.00;99871.19;5052557;28;20568;-82
2022/06/08 04:14:38;;;;;;;;;;;17.80;99.90;;;15.88;100.00;99874.34;5071269;28;20369;-84
2022/06/08 04:17:08;;;;;;;;;;;17.90;99.90;;;15.92;100.00;99864.56;5037537;28;19975;-84
2022/06/08 04:19:37;;;;;;;;;;;17.90;99.90;;;15.97;100.00;99867.44;5051907;28;19929;-84
2022/06/08 04:22:05;;;;;;;;;;;18.00;99.90;;;15.98;100.00;99866.38;5033228;28;20333;-84
2022/06/08 04:24:36;;;;;;;;;;;18.00;99.90;;;15.98;100.00;99869.09;5054519;28;20020;-84
2022/06/08 04:27:03;;;;;;;;;;;18.00;99.90;;;16.04;100.00;99872.81;5058766;28;19928;-84
2022/06/08 04:29:35;;;;;;;;;;;18.10;99.90;;;16.05;100.00;99868.16;5035355;28;19926;-84
2022/06/08 04:32:06;;;;;;;;;;;18.10;99.90;;;16.02;100.00;99873.03;5038988;28;19931;-84
2022/06/08 04:34:36;;;;;;;;;;;18.10;99.90;;;15.98;100.00;99868.28;5043896;28;19929;-83
2022/06/08 04:37:05;;;;;;;;;;;18.10;99.90;;;15.97;100.00;99872.94;5052820;28;19936;-84
2022/06/08 04:39:40;;;;;;;;;;;18.20;99.90;;;15.99;100.00;99876.28;5040783;28;19924;-83
2022/06/08 04:42:08;;;;;;;;;;;18.20;99.90;;;16.02;100.00;99875.78;5037485;28;19988;-83
2022/06/08 04:44:42;;;;;;;;;;;18.20;99.90;;;16.08;100.00;99884.16;5054126;28;19932;-84
2022/06/08 04:47:13;;;;;;;;;;;18.20;99.90;;;16.15;100.00;99885.72;5030323;28;20346;-82
2022/06/08 04:49:43;;;;;;;;;;;18.30;99.90;;;16.11;100.00;99886.44;5035572;28;19940;-83
2022/06/08 04:52:11;;;;;;;;;;;18.30;99.90;;;16.10;100.00;99882.84;5052723;28;19935;-81
2022/06/08 04:54:38;;;;;;;;;;;18.30;99.90;;;16.12;100.00;99883.44;4963167;28;19966;-82
2022/06/08 04:57:06;;;;;;;;;;;18.30;99.90;;;16.27;100.00;99884.91;5033230;28;19930;-82
2022/06/08 04:59:33;;;;;;;;;;;18.30;99.90;;;16.45;100.00;99882.03;5047075;28;21617;-81
2022/06/08 05:02:09;;;;;;;;;;;18.30;99.90;;;16.63;100.00;99874.75;5053453;28;20487;-82
2022/06/08 05:04:38;;;;;;;;;;;18.40;99.90;;;16.69;100.00;99874.59;5039018;28;20305;-83
2022/06/08 05:07:07;;;;;;;;;;;18.50;99.90;;;16.64;100.00;99877.25;5051069;28;20410;-81
2022/06/08 05:09:36;;;;;;;;;;;18.50;99.90;;;16.57;100.00;99869.13;5039307;28;19928;-80
2022/06/08 05:12:05;;;;;;;;;;;18.50;99.90;;;16.52;100.00;99865.44;5034969;28;19936;-79
2022/06/08 05:14:32;;;;;;;;;;;18.50;99.90;;;16.55;100.00;99867.72;5033483;28;19938;-81
2022/06/08 05:16:59;;;;;;;;;;;18.50;99.90;;;16.62;100.00;99865.69;5032292;28;20017;-82
2022/06/08 05:19:26;;;;;;;;;;;18.60;99.90;;;16.69;100.00;99860.88;5038916;28;19928;-88
2022/06/08 05:21:54;;;;;;;;;;;18.60;99.90;;;16.71;100.00;99853.22;5030470;28;20015;-86
2022/06/08 05:24:26;;;;;;;;;;;18.60;99.90;;;16.81;100.00;99847.97;5031437;28;19933;-86
2022/06/08 05:26:54;;;;;;;;;;;18.60;99.90;;;17.00;100.00;99848.66;4997638;28;19947;-86
2022/06/08 05:29:22;;;;;;;;;;;18.60;99.90;;;17.18;100.00;99839.38;5039226;28;20459;-86
2022/06/08 05:31:53;;;;;;;;;;;18.70;99.90;;;17.35;100.00;99838.63;5038441;28;19945;-87
2022/06/08 05:34:21;;;;;;;;;;;18.80;99.90;;;17.50;100.00;99840.81;5031680;28;20463;-86
2022/06/08 05:36:48;;;;;;;;;;;18.80;99.90;;;17.68;100.00;99845.25;4990930;28;19974;-86
2022/06/08 05:39:21;;;;;;;;;;;18.90;99.90;;;17.82;100.00;99840.25;5038171;28;19926;-86
2022/06/08 05:41:50;;;;;;;;;;;18.90;99.90;;;17.90;100.00;99839.91;5027343;28;20392;-87
2022/06/08 05:44:20;;;;;;;;;;;19.00;99.90;;;18.07;100.00;99840.72;5037219;28;19952;-83
2022/06/08 05:46:51;;;;;;;;;;;19.10;99.90;;;18.24;100.00;99842.63;5052500;28;19936;-83
2022/06/08 05:49:19;;;;;;;;;;;19.20;99.90;;;18.61;100.00;99845.66;4999006;28;19937;-83
2022/06/08 05:51:49;;;;;;;;;;;19.20;99.90;;;18.90;100.00;99837.25;5035496;28;19937;-83
2022/06/08 05:54:20;;;;;;;;;;;19.40;99.90;;;19.08;100.00;99833.34;5034188;28;19930;-83
2022/06/08 05:56:47;;;;;;;;;;;19.50;99.90;;;19.13;100.00;99820.44;5034798;28;19926;-84
2022/06/08 05:59:16;;;;;;;;;;;19.60;99.90;;;19.02;100.00;99821.41;5034113;28;20016;-84
2022/06/08 06:01:44;;;;;;;;;;;19.70;99.90;;;19.09;100.00;99819.28;5034230;28;19931;-84
2022/06/08 06:04:12;;;;;;;;;;;19.70;99.90;;;19.21;100.00;99823.81;5031656;28;19934;-83
2022/06/08 06:06:43;;;;;;;;;;;19.80;99.90;;;19.27;100.00;99820.88;5040906;28;20467;-81
2022/06/08 06:09:11;;;;;;;;;;;19.90;99.90;;;19.39;100.00;99817.13;5048889;28;19930;-81
2022/06/08 06:11:39;;;;;;;;;;;19.90;99.90;;;19.38;100.00;99821.81;5032671;28;19937;-82
2022/06/08 06:14:06;;;;;;;;;;;19.90;99.90;;;19.53;100.00;99812.84;5034154;28;19930;-82
2022/06/08 06:16:36;;;;;;;;;;;20.00;99.90;;;19.64;100.00;99811.84;5049428;28;19963;-83
2022/06/08 06:19:04;;;;;;;;;;;20.10;99.90;;;19.66;100.00;99806.88;5039872;28;19928;-82
2022/06/08 06:21:53;;;;;;;;;;;20.10;99.90;;;19.54;100.00;99807.06;5022750;28;19932;-82
2022/06/08 06:24:39;;;;;;;;;;;20.10;99.90;;;19.32;100.00;99806.28;5024837;28;19932;-82
2022/06/08 06:27:21;;;;;;;;;;;20.10;99.90;;;19.09;100.00;99807.41;5024549;28;19970;-83
2022/06/08 06:30:18;;;;;;;;;;;20.10;99.90;;;19.05;100.00;99804.34;4965202;28;19930;-82
2022/06/08 06:32:47;;;;;;;;;;;20.10;99.90;;;19.02;100.00;99799.34;4958420;28;19992;-83
2022/06/08 06:35:21;;;;;;;;;;;20.10;99.90;;;18.98;100.00;99803.69;5023463;28;19931;-82
2022/06/08 06:37:48;;;;;;;;;;;20.10;99.90;;;18.97;100.00;99802.03;5027916;28;20459;-83
2022/06/08 06:40:16;;;;;;;;;;;20.10;99.90;;;18.99;100.00;99802.63;5018531;28;19930;-82
2022/06/08 06:42:45;;;;;;;;;;;20.10;99.90;;;18.99;100.00;99802.63;5032632;28;19930;-82
2022/06/08 06:45:28;;;;;;;;;;;20.10;99.90;;;19.03;100.00;99803.75;4954378;28;20402;-82
2022/06/08 06:48:03;;;;;;;;;;;20.10;99.90;;;19.07;100.00;99793.06;5018814;28;20298;-82
2022/06/08 06:50:33;;;;;;;;;;;20.10;99.90;;;19.13;100.00;99792.88;5040914;28;19932;-83
2022/06/08 06:53:01;;;;;;;;;;;20.20;99.90;;;19.24;100.00;99795.72;5019920;28;19953;-83
2022/06/08 06:55:32;;;;;;;;;;;20.20;99.90;;;19.32;100.00;99795.25;5032395;28;19931;-83
2022/06/08 06:58:05;;;;;;;;;;;20.20;99.90;;;19.33;100.00;99788.66;5025000;28;20003;-82
2022/06/08 07:00:35;;;;;;;;;;;20.20;99.90;;;19.37;100.00;99787.03;5029418;28;20353;-83
2022/06/08 07:03:07;;;;;;;;;;;20.20;99.90;;;19.39;100.00;99784.84;5008545;28;19934;-82
2022/06/08 07:05:36;;;;;;;;;;;20.20;99.90;;;19.46;100.00;99779.94;5023941;28;19953;-83
2022/06/08 07:08:05;;;;;;;;;;;20.20;99.90;;;19.52;100.00;99778.91;4966776;28;19926;-82
2022/06/08 07:10:33;;;;;;;;;;;20.20;99.90;;;19.52;100.00;99773.38;5027312;28;19934;-83
2022/06/08 07:13:01;;;;;;;;;;;20.30;99.90;;;19.60;100.00;99774.00;5045970;28;19926;-82
2022/06/08 07:15:29;;;;;;;;;;;20.30;99.90;;;19.54;100.00;99771.19;5039238;28;19937;-83
2022/06/08 07:17:56;;;;;;;;;;;20.40;99.90;;;19.56;100.00;99770.09;5031499;28;19996;-83
2022/06/08 07:20:28;;;;;;;;;;;20.40;99.90;;;19.55;100.00;99766.50;5044997;28;19926;-83
2022/06/08 07:22:56;;;;;;;;;;;20.40;99.90;;;19.48;100.00;99766.72;5048447;28;19954;-83
2022/06/08 07:25:26;;;;;;;;;;;20.40;99.90;;;19.49;100.00;99759.25;4962074;28;19937;-82
2022/06/08 07:27:53;;;;;;;;;;;20.40;99.90;;;19.42;100.00;99756.72;5037096;28;19935;-83
2022/06/08 07:30:20;;;;;;;;;;;20.50;99.90;;;19.45;100.00;99753.44;5010527;28;20372;-83
2022/06/08 07:32:47;;;;;;;;;;;20.40;99.90;;;19.42;100.00;99756.72;4959848;28;19971;-83
2022/06/08 07:35:14;;;;;;;;;;;20.40;99.90;;;19.48;100.00;99752.91;4976296;28;19936;-84
2022/06/08 07:37:42;;;;;;;;;;;20.50;99.90;;;19.50;100.00;99747.97;4986608;28;19997;-83
2022/06/08 07:40:10;;;;;;;;;;;20.50;99.90;;;19.52;100.00;99745.78;4988533;28;19937;-82
2022/06/08 07:42:37;;;;;;;;;;;20.50;99.90;;;19.57;100.00;99746.91;5011569;28;20009;-83
2022/06/08 07:45:07;;;;;;;;;;;20.50;99.90;;;19.61;100.00;99748.03;4968001;28;20386;-82
2022/06/08 07:47:34;;;;;;;;;;;20.50;99.90;;;19.59;100.00;99740.06;4959910;28;19935;-84
2022/06/08 07:50:00;;;;;;;;;;;20.50;99.90;;;19.62;100.00;99739.50;4980976;28;19935;-83
2022/06/08 07:52:27;;;;;;;;;;;20.50;99.90;;;19.70;100.00;99729.91;4995074;28;19930;-83
2022/06/08 07:54:56;;;;;;;;;;;20.60;99.90;;;19.69;100.00;99739.28;4971304;28;19934;-83
2022/06/08 07:57:26;;;;;;;;;;;20.60;99.90;;;19.65;100.00;99732.66;4963461;28;19934;-83
2022/06/08 07:59:54;;;;;;;;;;;20.60;99.90;;;19.58;100.00;99732.03;5040003;28;19937;-83
2022/06/08 08:02:21;;;;;;;;;;;20.60;99.90;;;19.57;100.00;99735.88;4960850;28;19930;-83
2022/06/08 08:04:48;;;;;;;;;;;20.60;99.90;;;19.52;100.00;99723.69;4945667;28;19941;-82
2022/06/08 08:07:20;;;;;;;;;;;20.60;99.90;;;19.45;100.00;99727.78;5016907;28;19940;-83
2022/06/08 08:09:48;;;;;;;;;;;20.60;99.90;;;19.48;100.00;99730.03;4971259;28;20341;-83
2022/06/08 08:12:17;;;;;;;;;;;20.60;99.90;;;19.48;100.00;99717.03;4970783;28;20448;-82
2022/06/08 08:14:44;;;;;;;;;;;20.60;99.90;;;19.55;100.00;99727.84;4967378;28;19941;-82
2022/06/08 08:17:11;;;;;;;;;;;20.60;99.90;;;19.62;100.00;99727.63;4966002;28;20393;-82
2022/06/08 08:19:39;;;;;;;;;;;20.60;99.90;;;19.71;99.37;99723.28;4960709;28;19965;-83
2022/06/08 08:22:06;;;;;;;;;;;20.60;99.90;;;19.81;100.00;99717.03;4961921;28;19930;-83
2022/06/08 08:24:33;;;;;;;;;;;20.60;99.90;;;19.91;99.89;99720.72;5023971;28;20485;-82
2022/06/08 08:27:00;;;;;;;;;;;20.70;99.90;;;20.04;99.65;99713.06;4965214;28;20795;-83
2022/06/08 08:29:29;;;;;;;;;;;20.60;99.90;;;19.98;96.13;99719.66;4957442;28;20147;-83
2022/06/08 08:31:56;;;;;;;;;;;20.70;99.90;;;20.02;99.71;99709.72;4964146;28;20459;-83
2022/06/08 08:34:22;;;;;;;;;;;20.70;99.90;;;20.00;100.00;99712.75;4963518;28;19934;-82
2022/06/08 08:36:49;;;;;;;;;;;20.70;99.90;;;20.03;100.00;99711.38;5029868;28;20310;-82
2022/06/08 08:39:17;;;;;;;;;;;20.70;99.90;;;20.05;99.83;99703.69;4957669;28;19927;-82
2022/06/08 08:44:36;;;;;;;;;;;20.70;99.90;;;20.31;98.84;99702.72;4966292;28;19937;-83
2022/06/08 08:47:18;;;;;;;;;;;20.70;99.90;;;20.41;97.67;99698.31;4959632;28;19941;-82
2022/06/08 08:49:51;;;;;;;;;;;20.80;99.90;;;20.53;98.85;99693.41;4959666;28;20115;-83
2022/06/08 08:52:25;;;;;;;;;;;20.90;99.90;;;20.58;95.84;99690.66;4961429;28;19983;-82
2022/06/08 08:54:57;;;;;;;;;;;20.90;99.90;;;20.65;97.28;99685.72;4962142;28;19934;-82
2022/06/08 08:57:30;;;;;;;;;;;21.00;99.90;;;20.67;96.71;99689.03;4965060;28;19935;-82
2022/06/08 08:59:59;;;;;;;;;;;21.00;99.90;;;20.74;96.88;99688.78;4962815;28;19932;-83
2022/06/08 09:05:16;;;;;;;;;;;21.10;99.90;;;20.78;98.27;99689.09;4963284;28;19984;-82
2022/06/08 09:07:44;;;;;;;;;;;21.20;99.90;;;20.76;95.93;99696.81;4962635;28;19957;-82
2022/06/08 09:10:16;;;;;;;;;;;21.20;99.90;;;20.73;98.05;99689.06;4961949;28;19935;-82
2022/06/08 09:12:44;;;;;;;;;;;21.20;99.90;;;20.69;98.86;99691.53;5028127;28;19949;-82
2022/06/08 09:15:14;;;;;;;;;;;21.30;99.90;;;20.74;98.71;99687.97;4962588;28;19927;-82
2022/06/08 09:17:52;;;;;;;;;;;21.30;99.90;;;20.88;99.66;99691.84;4959906;28;19962;-83
2022/06/08 09:20:27;;;;;;;;;;;21.40;99.90;;;20.99;97.33;99690.78;4965248;28;19931;-83
2022/06/08 09:22:56;;;;;;;;;;;21.40;99.90;;;20.95;96.49;99683.31;4961453;28;19938;-84
2022/06/08 09:25:29;;;;;;;;;;;21.50;99.90;;;20.88;93.24;99678.03;4962955;28;19926;-83
2022/06/08 09:27:57;;;;;;;;;;;21.40;99.90;;;20.99;96.53;99684.41;4965418;28;19930;-83
2022/06/08 09:30:27;;;;;;;;;;;21.50;99.90;;;21.08;95.89;99672.53;4965544;28;19941;-84
2022/06/08 09:32:56;;;;;;;;;;;21.60;99.90;;;21.19;96.07;99669.75;4967378;28;20362;-83
2022/06/08 09:35:28;;;;;;;;;;;21.70;99.90;;;21.31;96.32;99662.03;5050059;28;20365;-84
2022/06/08 09:37:58;;;;;;;;;;;21.80;99.90;;;21.43;99.11;99670.88;5031417;28;19934;-83
2022/06/08 09:40:38;;;;;;;;;;;21.90;99.90;;;21.51;90.71;99668.69;4962254;28;19930;-83
2022/06/08 09:43:44;;;;;;;;;;;21.90;99.90;;;21.55;92.69;99653.19;4964651;28;19954;-83
2022/06/08 09:46:17;;;;;;;;;;;21.90;99.90;;;21.77;92.37;99652.88;4961568;28;19988;-83
2022/06/08 09:52:13;;;;;;;;;;;22.20;99.90;;;21.72;88.57;99656.47;4952953;28;21699;-83
2022/06/08 09:54:49;;;;;;;;;;;22.10;99.90;;;21.65;85.93;99664.25;4996161;28;19936;-83
2022/06/08 09:57:30;;;;;;;;;;;22.00;99.90;;;21.52;86.94;99651.00;4966560;28;19934;-83
2022/06/08 10:00:12;;;;;;;;;;;22.00;99.90;;;21.40;85.13;99649.31;5042536;28;20371;-83
2022/06/08 10:02:52;;;;;;;;;;;22.00;99.90;;;21.42;86.20;99649.03;4961733;28;19999;-83
2022/06/08 10:05:29;;;;;;;;;;;21.90;99.90;;;21.38;85.54;99651.53;5030500;28;19953;-83
2022/06/08 10:08:16;;;;;;;;;;;21.90;99.90;;;21.32;87.95;99646.25;4967170;28;19931;-83
2022/06/08 10:10:47;;;;;;;;;;;21.90;99.90;;;21.29;90.08;99639.34;4958228;28;19926;-83
2022/06/08 10:13:20;;;;;;;;;;;21.90;99.90;;;21.21;89.71;99637.97;4966150;28;20012;-84
2022/06/08 10:15:49;;;;;;;;;;;21.90;99.90;;;21.06;88.72;99640.72;4961454;28;19934;-83
2022/06/08 10:18:20;;;;;;;;;;;21.80;99.90;;;21.02;88.96;99634.09;4959446;28;19930;-83
2022/06/08 10:20:51;;;;;;;;;;;21.80;99.90;;;21.01;87.16;99638.78;5030261;28;20297;-83
2022/06/08 10:23:28;;;;;;;;;;;21.80;99.90;;;21.15;87.41;99639.06;4961060;28;19958;-83
2022/06/08 10:26:00;;;;;;;;;;;21.80;99.90;;;21.28;84.94;99634.91;4965289;28;20025;-84
2022/06/08 10:28:33;;;;;;;;;;;21.80;99.90;;;21.39;81.90;99625.47;4963536;28;19934;-84
2022/06/08 10:31:05;;;;;;;;;;;21.90;99.90;;;21.58;83.93;99619.41;4961741;28;19934;-83
2022/06/08 10:33:41;;;;;;;;;;;21.90;99.90;;;21.68;84.40;99619.38;5030859;28;20322;-84
2022/06/08 10:36:11;;;;;;;;;;;22.00;99.90;;;21.73;84.73;99616.59;5028715;28;19929;-83
2022/06/08 10:38:42;;;;;;;;;;;22.00;99.90;;;21.81;86.26;99615.19;4955895;28;19934;-84
2022/06/08 10:44:32;;;;;;;;;;;22.10;99.90;;;21.86;82.74;99613.25;5001184;28;20009;-84
2022/06/08 10:47:21;;;;;;;;;;;22.20;99.90;;;21.84;79.50;99603.56;4963419;28;19958;-84
2022/06/08 10:49:52;;;;;;;;;;;22.20;98.90;;;21.83;82.21;99616.56;4965188;28;20056;-84
2022/06/08 10:52:29;;;;;;;;;;;22.20;99.90;;;21.76;80.01;99613.28;4970128;28;19934;-83
2022/06/08 10:55:12;;;;;;;;;;;22.20;99.60;;;21.68;82.33;99608.28;4954270;28;19926;-84
2022/06/08 10:57:44;;;;;;;;;;;22.20;99.90;;;21.59;83.04;99608.06;4959396;28;20015;-84
2022/06/08 11:00:27;;;;;;;;;;;22.20;99.90;;;21.51;82.56;99605.00;4964692;28;20434;-83
2022/06/08 11:03:01;;;;;;;;;;;22.10;99.90;;;21.46;84.62;99601.16;4968724;28;19969;-84
2022/06/08 11:05:33;;;;;;;;;;;22.10;99.90;;;21.45;84.72;99604.19;4967775;28;19933;-84
2022/06/08 11:08:17;;;;;;;;;;;22.10;99.90;;;21.44;85.26;99603.38;4960262;28;19936;-83
2022/06/08 11:10:57;;;;;;;;;;;22.10;99.90;;;21.43;84.95;99618.28;4964736;28;19970;-83
2022/06/08 11:13:31;;;;;;;;;;;22.10;99.90;;;21.34;83.67;99619.94;4956181;28;20684;-83
2022/06/08 11:16:07;;;;;;;;;;;22.10;99.90;;;21.06;85.36;99635.19;5025202;28;19935;-83
2022/06/08 11:18:43;;;;;;;;;;;22.00;99.90;;;20.56;86.65;99647.78;4966435;28;20916;-84
2022/06/08 11:21:38;;;;;;;;;;;21.90;99.90;;;19.96;89.51;99661.09;4970494;28;20014;-83
2022/06/08 11:24:14;;;;;;;;;;;21.80;99.90;;;19.44;100.00;99669.00;4960770;28;19969;-82
2022/06/08 11:27:13;;;;;;;;;;;21.60;99.90;;;18.81;100.00;99676.97;4976878;28;20019;-83
2022/06/08 11:29:47;;;;;;;;;;;21.40;99.90;;;18.26;100.00;99672.44;4965894;28;20283;-83
2022/06/08 11:33:02;;;;;;;;;;;21.20;99.90;;;17.87;100.00;99664.22;4965536;28;19926;-82
2022/06/08 11:36:00;;;;;;;;;;;21.10;99.90;;;17.63;100.00;99660.78;4975035;28;20408;-83
2022/06/08 11:38:40;;;;;;;;;;;20.90;99.90;;;17.44;100.00;99650.09;4958731;28;19941;-84
2022/06/08 11:41:27;;;;;;;;;;;20.70;99.90;;;17.42;100.00;99637.66;5033714;28;20403;-83
2022/06/08 11:43:54;;;;;;;;;;;20.60;99.90;;;17.35;100.00;99648.84;4965104;28;19926;-83